Terminal Aerodrome Forecast
Issued by NWS

Home | Current Version | Previous Version | Text Only | Print | Product List | Glossary On
Versions: 1 2 3 4 5 6 7 8 9 10 11 12 13 14 15
000
FTUS45 KGJT 171120
TAFVEL
TAF
KVEL 171120Z 1712/1812 30004KT P6SM FEW100 SCT250
     FM171800 20007KT P6SM FEW100 SCT250
     FM180100 29004KT P6SM SCT200=

USA.gov is the U.S. government's official web portal to all federal, state and local government web resources and services.